sensor_id;sensor_type;location;lat;lon;timestamp;P1;durP1;ratioP1;P2;durP2;ratioP2
52948;SDS011;38812;50.942;3.644;2023-06-26T00:01:11;3.67;;;2.22;;
52948;SDS011;38812;50.942;3.644;2023-06-26T00:03:36;4.78;;;2.88;;
52948;SDS011;38812;50.942;3.644;2023-06-26T00:06:02;8.23;;;2.42;;
52948;SDS011;38812;50.942;3.644;2023-06-26T00:08:27;5.32;;;2.90;;
52948;SDS011;38812;50.942;3.644;2023-06-26T00:10:53;6.57;;;3.22;;
52948;SDS011;38812;50.942;3.644;2023-06-26T00:13:19;5.63;;;2.63;;
52948;SDS011;38812;50.942;3.644;2023-06-26T00:15:44;9.93;;;2.83;;
52948;SDS011;38812;50.942;3.644;2023-06-26T00:18:10;6.25;;;2.88;;
52948;SDS011;38812;50.942;3.644;2023-06-26T00:20:36;5.28;;;2.47;;
52948;SDS011;38812;50.942;3.644;2023-06-26T00:23:01;5.82;;;2.72;;
52948;SDS011;38812;50.942;3.644;2023-06-26T00:25:29;4.55;;;2.13;;
52948;SDS011;38812;50.942;3.644;2023-06-26T00:27:54;3.17;;;2.33;;
52948;SDS011;38812;50.942;3.644;2023-06-26T00:30:19;11.45;;;2.95;;
52948;SDS011;38812;50.942;3.644;2023-06-26T00:32:45;7.65;;;2.58;;
52948;SDS011;38812;50.942;3.644;2023-06-26T00:35:10;5.93;;;2.95;;
52948;SDS011;38812;50.942;3.644;2023-06-26T00:37:36;10.57;;;2.83;;
52948;SDS011;38812;50.942;3.644;2023-06-26T00:40:01;9.13;;;2.38;;
52948;SDS011;38812;50.942;3.644;2023-06-26T00:42:27;11.57;;;2.83;;
52948;SDS011;38812;50.942;3.644;2023-06-26T00:44:52;3.55;;;2.25;;
52948;SDS011;38812;50.942;3.644;2023-06-26T00:47:18;6.10;;;2.72;;
52948;SDS011;38812;50.942;3.644;2023-06-26T00:49:43;7.20;;;2.53;;
52948;SDS011;38812;50.942;3.644;2023-06-26T00:52:09;8.35;;;2.78;;
52948;SDS011;38812;50.942;3.644;2023-06-26T00:54:34;10.82;;;3.25;;
52948;SDS011;38812;50.942;3.644;2023-06-26T00:57:00;4.80;;;2.70;;
52948;SDS011;38812;50.942;3.644;2023-06-26T00:59:25;9.00;;;2.83;;
52948;SDS011;38812;50.942;3.644;2023-06-26T01:01:50;8.93;;;2.95;;
52948;SDS011;38812;50.942;3.644;2023-06-26T01:04:16;6.03;;;2.83;;
52948;SDS011;38812;50.942;3.644;2023-06-26T01:06:45;6.95;;;2.63;;
52948;SDS011;38812;50.942;3.644;2023-06-26T01:09:20;7.97;;;2.92;;
52948;SDS011;38812;50.942;3.644;2023-06-26T01:11:47;9.77;;;3.85;;
52948;SDS011;38812;50.942;3.644;2023-06-26T01:14:13;8.57;;;3.03;;
52948;SDS011;38812;50.942;3.644;2023-06-26T01:16:39;8.70;;;3.60;;
52948;SDS011;38812;50.942;3.644;2023-06-26T01:19:13;10.68;;;3.25;;
52948;SDS011;38812;50.942;3.644;2023-06-26T01:21:54;9.85;;;3.38;;
52948;SDS011;38812;50.942;3.644;2023-06-26T01:24:25;12.20;;;3.50;;
52948;SDS011;38812;50.942;3.644;2023-06-26T01:26:58;15.73;;;4.22;;
52948;SDS011;38812;50.942;3.644;2023-06-26T01:29:25;12.57;;;4.90;;
52948;SDS011;38812;50.942;3.644;2023-06-26T01:31:53;11.77;;;4.13;;
52948;SDS011;38812;50.942;3.644;2023-06-26T01:34:18;10.55;;;3.60;;
52948;SDS011;38812;50.942;3.644;2023-06-26T01:36:45;12.00;;;3.35;;
52948;SDS011;38812;50.942;3.644;2023-06-26T01:39:18;9.57;;;3.17;;
52948;SDS011;38812;50.942;3.644;2023-06-26T01:41:44;15.18;;;4.10;;
52948;SDS011;38812;50.942;3.644;2023-06-26T01:44:32;16.83;;;4.28;;
52948;SDS011;38812;50.942;3.644;2023-06-26T01:47:01;11.38;;;3.78;;
52948;SDS011;38812;50.942;3.644;2023-06-26T01:52:22;13.07;;;4.28;;
52948;SDS011;38812;50.942;3.644;2023-06-26T01:57:21;12.77;;;4.30;;
52948;SDS011;38812;50.942;3.644;2023-06-26T01:59:48;15.95;;;3.63;;
52948;SDS011;38812;50.942;3.644;2023-06-26T02:02:13;18.30;;;4.45;;
52948;SDS011;38812;50.942;3.644;2023-06-26T02:04:39;14.57;;;3.65;;
52948;SDS011;38812;50.942;3.644;2023-06-26T02:07:05;14.02;;;4.03;;
52948;SDS011;38812;50.942;3.644;2023-06-26T02:09:31;13.80;;;3.95;;
52948;SDS011;38812;50.942;3.644;2023-06-26T02:11:56;9.75;;;3.40;;
52948;SDS011;38812;50.942;3.644;2023-06-26T02:14:21;10.77;;;3.97;;
52948;SDS011;38812;50.942;3.644;2023-06-26T02:16:47;15.35;;;4.97;;
52948;SDS011;38812;50.942;3.644;2023-06-26T02:19:12;8.80;;;3.90;;
52948;SDS011;38812;50.942;3.644;2023-06-26T02:21:37;13.95;;;4.72;;
52948;SDS011;38812;50.942;3.644;2023-06-26T02:24:04;10.52;;;4.15;;
52948;SDS011;38812;50.942;3.644;2023-06-26T02:26:30;17.02;;;5.05;;
52948;SDS011;38812;50.942;3.644;2023-06-26T02:28:55;12.50;;;3.85;;
52948;SDS011;38812;50.942;3.644;2023-06-26T02:31:21;13.82;;;4.00;;
52948;SDS011;38812;50.942;3.644;2023-06-26T02:33:46;11.70;;;4.55;;
52948;SDS011;38812;50.942;3.644;2023-06-26T02:36:11;15.40;;;3.80;;
52948;SDS011;38812;50.942;3.644;2023-06-26T02:38:37;13.52;;;3.70;;
52948;SDS011;38812;50.942;3.644;2023-06-26T02:41:02;20.92;;;4.53;;
52948;SDS011;38812;50.942;3.644;2023-06-26T02:43:27;10.95;;;4.40;;
52948;SDS011;38812;50.942;3.644;2023-06-26T02:45:53;10.20;;;4.65;;
52948;SDS011;38812;50.942;3.644;2023-06-26T02:48:18;14.85;;;4.30;;
52948;SDS011;38812;50.942;3.644;2023-06-26T02:50:44;21.73;;;4.60;;
52948;SDS011;38812;50.942;3.644;2023-06-26T02:53:11;9.40;;;4.07;;
52948;SDS011;38812;50.942;3.644;2023-06-26T02:55:37;17.98;;;4.93;;
52948;SDS011;38812;50.942;3.644;2023-06-26T02:58:02;14.73;;;4.10;;
52948;SDS011;38812;50.942;3.644;2023-06-26T03:00:28;12.73;;;4.13;;
52948;SDS011;38812;50.942;3.644;2023-06-26T03:02:54;26.67;;;4.53;;
52948;SDS011;38812;50.942;3.644;2023-06-26T03:05:20;14.98;;;4.65;;
52948;SDS011;38812;50.942;3.644;2023-06-26T03:07:46;13.07;;;4.57;;
52948;SDS011;38812;50.942;3.644;2023-06-26T03:10:11;21.08;;;4.38;;
52948;SDS011;38812;50.942;3.644;2023-06-26T03:12:37;16.17;;;4.40;;
52948;SDS011;38812;50.942;3.644;2023-06-26T03:15:02;13.18;;;4.40;;
52948;SDS011;38812;50.942;3.644;2023-06-26T03:17:28;16.75;;;3.65;;
52948;SDS011;38812;50.942;3.644;2023-06-26T03:19:53;15.77;;;5.13;;
52948;SDS011;38812;50.942;3.644;2023-06-26T03:22:19;15.82;;;4.80;;
52948;SDS011;38812;50.942;3.644;2023-06-26T03:24:44;18.55;;;5.53;;
52948;SDS011;38812;50.942;3.644;2023-06-26T03:27:10;14.57;;;3.97;;
52948;SDS011;38812;50.942;3.644;2023-06-26T03:29:36;25.15;;;5.00;;
52948;SDS011;38812;50.942;3.644;2023-06-26T03:32:02;14.00;;;3.92;;
52948;SDS011;38812;50.942;3.644;2023-06-26T03:34:27;12.18;;;3.45;;
52948;SDS011;38812;50.942;3.644;2023-06-26T03:36:53;17.88;;;4.25;;
52948;SDS011;38812;50.942;3.644;2023-06-26T03:39:18;16.52;;;4.57;;
52948;SDS011;38812;50.942;3.644;2023-06-26T03:41:44;12.95;;;3.40;;
52948;SDS011;38812;50.942;3.644;2023-06-26T03:44:09;15.70;;;4.18;;
52948;SDS011;38812;50.942;3.644;2023-06-26T03:46:34;10.93;;;4.15;;
52948;SDS011;38812;50.942;3.644;2023-06-26T03:49:00;15.60;;;3.92;;
52948;SDS011;38812;50.942;3.644;2023-06-26T03:51:25;15.07;;;4.60;;
52948;SDS011;38812;50.942;3.644;2023-06-26T03:53:51;12.23;;;3.75;;
52948;SDS011;38812;50.942;3.644;2023-06-26T03:56:16;19.73;;;4.53;;
52948;SDS011;38812;50.942;3.644;2023-06-26T03:58:41;15.55;;;4.60;;
52948;SDS011;38812;50.942;3.644;2023-06-26T04:01:07;12.95;;;3.75;;
52948;SDS011;38812;50.942;3.644;2023-06-26T04:03:32;13.98;;;4.50;;
52948;SDS011;38812;50.942;3.644;2023-06-26T04:05:59;16.23;;;3.70;;
52948;SDS011;38812;50.942;3.644;2023-06-26T04:08:24;10.18;;;3.25;;
52948;SDS011;38812;50.942;3.644;2023-06-26T04:10:52;13.02;;;3.38;;
52948;SDS011;38812;50.942;3.644;2023-06-26T04:13:18;16.95;;;4.15;;
52948;SDS011;38812;50.942;3.644;2023-06-26T04:15:44;11.63;;;3.88;;
52948;SDS011;38812;50.942;3.644;2023-06-26T04:18:09;11.93;;;3.33;;
52948;SDS011;38812;50.942;3.644;2023-06-26T04:20:41;19.60;;;3.70;;
52948;SDS011;38812;50.942;3.644;2023-06-26T04:23:37;14.10;;;3.25;;
52948;SDS011;38812;50.942;3.644;2023-06-26T04:26:03;12.82;;;2.78;;
52948;SDS011;38812;50.942;3.644;2023-06-26T04:28:30;12.88;;;3.13;;
52948;SDS011;38812;50.942;3.644;2023-06-26T04:30:56;15.10;;;4.15;;
52948;SDS011;38812;50.942;3.644;2023-06-26T04:33:22;9.35;;;2.63;;
52948;SDS011;38812;50.942;3.644;2023-06-26T04:35:48;11.20;;;2.75;;
52948;SDS011;38812;50.942;3.644;2023-06-26T04:38:14;9.52;;;2.95;;
52948;SDS011;38812;50.942;3.644;2023-06-26T04:40:40;11.82;;;2.70;;
52948;SDS011;38812;50.942;3.644;2023-06-26T04:43:06;16.45;;;3.50;;
52948;SDS011;38812;50.942;3.644;2023-06-26T04:45:31;11.43;;;2.58;;
52948;SDS011;38812;50.942;3.644;2023-06-26T04:47:56;11.70;;;2.95;;
52948;SDS011;38812;50.942;3.644;2023-06-26T04:50:22;10.93;;;2.50;;
52948;SDS011;38812;50.942;3.644;2023-06-26T04:52:48;8.27;;;2.38;;
52948;SDS011;38812;50.942;3.644;2023-06-26T04:55:13;8.20;;;2.20;;
52948;SDS011;38812;50.942;3.644;2023-06-26T04:57:39;11.88;;;2.33;;
52948;SDS011;38812;50.942;3.644;2023-06-26T05:00:04;12.73;;;2.88;;
52948;SDS011;38812;50.942;3.644;2023-06-26T05:02:34;11.43;;;2.63;;
52948;SDS011;38812;50.942;3.644;2023-06-26T05:05:00;10.23;;;2.20;;
52948;SDS011;38812;50.942;3.644;2023-06-26T05:07:25;16.65;;;2.80;;
52948;SDS011;38812;50.942;3.644;2023-06-26T05:09:51;6.97;;;2.50;;
52948;SDS011;38812;50.942;3.644;2023-06-26T05:12:16;9.52;;;2.30;;
52948;SDS011;38812;50.942;3.644;2023-06-26T05:14:42;5.43;;;1.77;;
52948;SDS011;38812;50.942;3.644;2023-06-26T05:17:07;5.32;;;2.05;;
52948;SDS011;38812;50.942;3.644;2023-06-26T05:19:32;9.55;;;2.55;;
52948;SDS011;38812;50.942;3.644;2023-06-26T05:21:58;8.93;;;2.40;;
52948;SDS011;38812;50.942;3.644;2023-06-26T05:24:26;8.40;;;2.65;;
52948;SDS011;38812;50.942;3.644;2023-06-26T05:26:52;7.28;;;2.33;;
52948;SDS011;38812;50.942;3.644;2023-06-26T05:29:18;8.05;;;1.85;;
52948;SDS011;38812;50.942;3.644;2023-06-26T05:31:43;13.15;;;2.10;;
52948;SDS011;38812;50.942;3.644;2023-06-26T05:34:11;12.82;;;2.08;;
52948;SDS011;38812;50.942;3.644;2023-06-26T05:36:38;10.13;;;2.13;;
52948;SDS011;38812;50.942;3.644;2023-06-26T05:39:06;4.97;;;1.50;;
52948;SDS011;38812;50.942;3.644;2023-06-26T05:41:32;4.70;;;2.20;;
52948;SDS011;38812;50.942;3.644;2023-06-26T05:43:57;5.28;;;2.03;;
52948;SDS011;38812;50.942;3.644;2023-06-26T05:46:22;3.63;;;1.50;;
52948;SDS011;38812;50.942;3.644;2023-06-26T05:48:48;3.67;;;1.60;;
52948;SDS011;38812;50.942;3.644;2023-06-26T05:51:13;2.78;;;1.20;;
52948;SDS011;38812;50.942;3.644;2023-06-26T05:53:39;9.63;;;1.95;;
52948;SDS011;38812;50.942;3.644;2023-06-26T05:56:05;9.30;;;1.95;;
52948;SDS011;38812;50.942;3.644;2023-06-26T05:58:30;8.10;;;3.25;;
52948;SDS011;38812;50.942;3.644;2023-06-26T06:00:57;7.88;;;1.83;;
52948;SDS011;38812;50.942;3.644;2023-06-26T06:03:22;6.25;;;1.70;;
52948;SDS011;38812;50.942;3.644;2023-06-26T06:05:48;3.60;;;1.35;;
52948;SDS011;38812;50.942;3.644;2023-06-26T06:08:13;4.25;;;1.48;;
52948;SDS011;38812;50.942;3.644;2023-06-26T06:10:39;7.53;;;1.70;;
52948;SDS011;38812;50.942;3.644;2023-06-26T06:13:04;6.65;;;1.55;;
52948;SDS011;38812;50.942;3.644;2023-06-26T06:15:29;5.93;;;1.67;;
52948;SDS011;38812;50.942;3.644;2023-06-26T06:17:55;7.93;;;1.65;;
52948;SDS011;38812;50.942;3.644;2023-06-26T06:20:20;4.15;;;1.73;;
52948;SDS011;38812;50.942;3.644;2023-06-26T06:22:46;8.93;;;2.10;;
52948;SDS011;38812;50.942;3.644;2023-06-26T06:25:13;6.60;;;2.00;;
52948;SDS011;38812;50.942;3.644;2023-06-26T06:27:39;4.82;;;1.60;;
52948;SDS011;38812;50.942;3.644;2023-06-26T06:30:04;3.10;;;1.60;;
52948;SDS011;38812;50.942;3.644;2023-06-26T06:32:30;7.57;;;1.50;;
52948;SDS011;38812;50.942;3.644;2023-06-26T06:34:56;11.65;;;3.13;;
52948;SDS011;38812;50.942;3.644;2023-06-26T06:37:22;9.77;;;2.30;;
52948;SDS011;38812;50.942;3.644;2023-06-26T06:39:47;4.07;;;1.35;;
52948;SDS011;38812;50.942;3.644;2023-06-26T06:42:13;3.13;;;1.63;;
52948;SDS011;38812;50.942;3.644;2023-06-26T06:44:38;10.93;;;1.63;;
52948;SDS011;38812;50.942;3.644;2023-06-26T06:47:04;6.72;;;1.85;;
52948;SDS011;38812;50.942;3.644;2023-06-26T06:49:32;9.85;;;2.15;;
52948;SDS011;38812;50.942;3.644;2023-06-26T06:51:57;10.52;;;1.85;;
52948;SDS011;38812;50.942;3.644;2023-06-26T06:54:25;7.63;;;2.00;;
52948;SDS011;38812;50.942;3.644;2023-06-26T06:56:51;6.60;;;1.50;;
52948;SDS011;38812;50.942;3.644;2023-06-26T06:59:16;6.13;;;1.67;;
52948;SDS011;38812;50.942;3.644;2023-06-26T07:01:42;6.25;;;1.80;;
52948;SDS011;38812;50.942;3.644;2023-06-26T07:04:07;7.60;;;1.55;;
52948;SDS011;38812;50.942;3.644;2023-06-26T07:06:33;8.13;;;1.60;;
52948;SDS011;38812;50.942;3.644;2023-06-26T07:08:59;7.43;;;1.80;;
52948;SDS011;38812;50.942;3.644;2023-06-26T07:11:24;5.03;;;1.60;;
52948;SDS011;38812;50.942;3.644;2023-06-26T07:13:50;5.45;;;1.83;;
52948;SDS011;38812;50.942;3.644;2023-06-26T07:16:15;6.45;;;2.17;;
52948;SDS011;38812;50.942;3.644;2023-06-26T07:18:40;7.80;;;1.85;;
52948;SDS011;38812;50.942;3.644;2023-06-26T07:21:06;14.25;;;2.53;;
52948;SDS011;38812;50.942;3.644;2023-06-26T07:23:32;10.43;;;2.05;;
52948;SDS011;38812;50.942;3.644;2023-06-26T07:25:57;8.52;;;1.90;;
52948;SDS011;38812;50.942;3.644;2023-06-26T07:28:23;7.38;;;1.98;;
52948;SDS011;38812;50.942;3.644;2023-06-26T07:30:48;6.53;;;1.70;;
52948;SDS011;38812;50.942;3.644;2023-06-26T07:33:14;7.35;;;2.00;;
52948;SDS011;38812;50.942;3.644;2023-06-26T07:35:39;7.18;;;1.60;;
52948;SDS011;38812;50.942;3.644;2023-06-26T07:38:05;6.57;;;1.60;;
52948;SDS011;38812;50.942;3.644;2023-06-26T07:40:30;8.10;;;1.80;;
52948;SDS011;38812;50.942;3.644;2023-06-26T07:42:55;12.38;;;3.35;;
52948;SDS011;38812;50.942;3.644;2023-06-26T07:45:23;3.60;;;1.60;;
52948;SDS011;38812;50.942;3.644;2023-06-26T07:47:48;6.53;;;1.10;;
52948;SDS011;38812;50.942;3.644;2023-06-26T07:50:14;7.45;;;1.63;;
52948;SDS011;38812;50.942;3.644;2023-06-26T07:52:44;9.73;;;1.70;;
52948;SDS011;38812;50.942;3.644;2023-06-26T07:55:10;4.15;;;1.60;;
52948;SDS011;38812;50.942;3.644;2023-06-26T07:57:35;5.55;;;1.60;;
52948;SDS011;38812;50.942;3.644;2023-06-26T08:00:00;5.57;;;1.70;;
52948;SDS011;38812;50.942;3.644;2023-06-26T08:02:26;6.63;;;1.85;;
52948;SDS011;38812;50.942;3.644;2023-06-26T08:04:51;5.03;;;1.92;;
52948;SDS011;38812;50.942;3.644;2023-06-26T08:07:17;6.60;;;1.52;;
52948;SDS011;38812;50.942;3.644;2023-06-26T08:09:43;4.05;;;1.58;;
52948;SDS011;38812;50.942;3.644;2023-06-26T08:12:09;5.53;;;1.65;;
52948;SDS011;38812;50.942;3.644;2023-06-26T08:14:34;7.82;;;1.95;;
52948;SDS011;38812;50.942;3.644;2023-06-26T08:16:59;8.55;;;1.48;;
52948;SDS011;38812;50.942;3.644;2023-06-26T08:19:25;6.70;;;1.58;;
52948;SDS011;38812;50.942;3.644;2023-06-26T08:21:50;10.38;;;1.52;;
52948;SDS011;38812;50.942;3.644;2023-06-26T08:24:16;5.53;;;1.50;;
52948;SDS011;38812;50.942;3.644;2023-06-26T08:26:44;5.10;;;1.55;;
52948;SDS011;38812;50.942;3.644;2023-06-26T08:29:09;7.45;;;2.10;;
52948;SDS011;38812;50.942;3.644;2023-06-26T08:31:35;4.63;;;1.30;;
52948;SDS011;38812;50.942;3.644;2023-06-26T08:34:01;6.80;;;1.20;;
52948;SDS011;38812;50.942;3.644;2023-06-26T08:36:28;6.95;;;1.80;;
52948;SDS011;38812;50.942;3.644;2023-06-26T08:38:53;9.35;;;1.73;;
52948;SDS011;38812;50.942;3.644;2023-06-26T08:41:19;2.92;;;1.52;;
52948;SDS011;38812;50.942;3.644;2023-06-26T08:43:44;6.03;;;1.70;;
52948;SDS011;38812;50.942;3.644;2023-06-26T08:46:09;7.45;;;2.30;;
52948;SDS011;38812;50.942;3.644;2023-06-26T08:48:35;4.90;;;2.10;;
52948;SDS011;38812;50.942;3.644;2023-06-26T08:51:09;3.23;;;1.33;;
52948;SDS011;38812;50.942;3.644;2023-06-26T08:56:40;7.20;;;1.40;;
52948;SDS011;38812;50.942;3.644;2023-06-26T08:59:08;11.07;;;1.60;;
52948;SDS011;38812;50.942;3.644;2023-06-26T09:01:35;4.75;;;1.45;;
52948;SDS011;38812;50.942;3.644;2023-06-26T09:04:01;15.63;;;2.45;;
52948;SDS011;38812;50.942;3.644;2023-06-26T09:06:27;6.45;;;1.65;;
52948;SDS011;38812;50.942;3.644;2023-06-26T09:08:52;4.57;;;1.30;;
52948;SDS011;38812;50.942;3.644;2023-06-26T09:11:18;9.73;;;1.52;;
52948;SDS011;38812;50.942;3.644;2023-06-26T09:13:43;7.78;;;1.77;;
52948;SDS011;38812;50.942;3.644;2023-06-26T09:16:09;4.55;;;1.70;;
52948;SDS011;38812;50.942;3.644;2023-06-26T09:18:35;4.65;;;1.67;;
52948;SDS011;38812;50.942;3.644;2023-06-26T09:21:05;3.85;;;1.38;;
52948;SDS011;38812;50.942;3.644;2023-06-26T09:23:31;7.75;;;2.47;;
52948;SDS011;38812;50.942;3.644;2023-06-26T09:25:57;4.07;;;2.17;;
52948;SDS011;38812;50.942;3.644;2023-06-26T09:28:22;5.07;;;1.45;;
52948;SDS011;38812;50.942;3.644;2023-06-26T09:30:48;3.70;;;1.23;;
52948;SDS011;38812;50.942;3.644;2023-06-26T09:33:16;3.33;;;1.52;;
52948;SDS011;38812;50.942;3.644;2023-06-26T09:35:45;2.67;;;1.40;;
52948;SDS011;38812;50.942;3.644;2023-06-26T09:38:12;3.65;;;1.60;;
52948;SDS011;38812;50.942;3.644;2023-06-26T09:40:38;3.00;;;1.33;;
52948;SDS011;38812;50.942;3.644;2023-06-26T09:43:05;6.13;;;1.38;;
52948;SDS011;38812;50.942;3.644;2023-06-26T09:45:32;5.15;;;1.30;;
52948;SDS011;38812;50.942;3.644;2023-06-26T09:48:01;5.43;;;1.67;;
52948;SDS011;38812;50.942;3.644;2023-06-26T09:50:29;4.83;;;1.50;;
52948;SDS011;38812;50.942;3.644;2023-06-26T09:52:58;2.20;;;1.15;;
52948;SDS011;38812;50.942;3.644;2023-06-26T09:55:34;3.10;;;1.42;;
52948;SDS011;38812;50.942;3.644;2023-06-26T09:58:00;5.47;;;1.50;;
52948;SDS011;38812;50.942;3.644;2023-06-26T10:00:27;4.15;;;1.45;;
52948;SDS011;38812;50.942;3.644;2023-06-26T10:02:53;3.80;;;1.20;;
52948;SDS011;38812;50.942;3.644;2023-06-26T10:05:18;6.57;;;1.60;;
52948;SDS011;38812;50.942;3.644;2023-06-26T10:07:44;6.90;;;1.90;;
52948;SDS011;38812;50.942;3.644;2023-06-26T10:10:11;4.72;;;1.60;;
52948;SDS011;38812;50.942;3.644;2023-06-26T10:12:37;4.82;;;1.40;;
52948;SDS011;38812;50.942;3.644;2023-06-26T10:15:03;5.80;;;1.42;;
52948;SDS011;38812;50.942;3.644;2023-06-26T10:17:30;4.07;;;1.48;;
52948;SDS011;38812;50.942;3.644;2023-06-26T10:20:00;6.00;;;1.52;;
52948;SDS011;38812;50.942;3.644;2023-06-26T10:22:29;3.50;;;1.60;;
52948;SDS011;38812;50.942;3.644;2023-06-26T10:24:58;2.83;;;1.00;;
52948;SDS011;38812;50.942;3.644;2023-06-26T10:27:27;3.95;;;1.20;;
52948;SDS011;38812;50.942;3.644;2023-06-26T10:29:57;3.10;;;1.67;;
52948;SDS011;38812;50.942;3.644;2023-06-26T10:32:26;4.82;;;1.45;;
52948;SDS011;38812;50.942;3.644;2023-06-26T10:34:53;5.07;;;1.63;;
52948;SDS011;38812;50.942;3.644;2023-06-26T10:37:20;2.55;;;1.48;;
52948;SDS011;38812;50.942;3.644;2023-06-26T10:42:11;5.25;;;1.55;;
52948;SDS011;38812;50.942;3.644;2023-06-26T10:44:40;5.65;;;1.63;;
52948;SDS011;38812;50.942;3.644;2023-06-26T10:47:07;3.63;;;1.70;;
52948;SDS011;38812;50.942;3.644;2023-06-26T10:49:34;15.80;;;1.95;;
52948;SDS011;38812;50.942;3.644;2023-06-26T10:52:01;4.60;;;1.33;;
52948;SDS011;38812;50.942;3.644;2023-06-26T10:54:33;4.13;;;1.40;;
52948;SDS011;38812;50.942;3.644;2023-06-26T10:57:00;2.75;;;1.05;;
52948;SDS011;38812;50.942;3.644;2023-06-26T10:59:27;5.03;;;1.25;;
52948;SDS011;38812;50.942;3.644;2023-06-26T11:01:58;4.00;;;1.42;;
52948;SDS011;38812;50.942;3.644;2023-06-26T11:07:16;3.00;;;1.20;;
52948;SDS011;38812;50.942;3.644;2023-06-26T11:15:19;4.63;;;1.60;;
52948;SDS011;38812;50.942;3.644;2023-06-26T11:17:45;4.97;;;1.63;;
52948;SDS011;38812;50.942;3.644;2023-06-26T11:20:12;9.65;;;1.55;;
52948;SDS011;38812;50.942;3.644;2023-06-26T11:22:39;4.40;;;1.85;;
52948;SDS011;38812;50.942;3.644;2023-06-26T11:25:07;5.13;;;1.30;;
52948;SDS011;38812;50.942;3.644;2023-06-26T11:30:01;4.55;;;1.25;;
52948;SDS011;38812;50.942;3.644;2023-06-26T11:32:27;8.52;;;1.10;;
52948;SDS011;38812;50.942;3.644;2023-06-26T11:34:54;4.85;;;1.50;;
52948;SDS011;38812;50.942;3.644;2023-06-26T11:37:20;8.57;;;0.95;;
52948;SDS011;38812;50.942;3.644;2023-06-26T11:39:46;6.97;;;1.50;;
52948;SDS011;38812;50.942;3.644;2023-06-26T11:42:12;4.72;;;1.40;;
52948;SDS011;38812;50.942;3.644;2023-06-26T11:44:43;3.88;;;1.38;;
52948;SDS011;38812;50.942;3.644;2023-06-26T11:47:13;6.30;;;1.45;;
52948;SDS011;38812;50.942;3.644;2023-06-26T11:49:41;3.88;;;1.08;;
52948;SDS011;38812;50.942;3.644;2023-06-26T11:52:10;6.72;;;1.70;;
52948;SDS011;38812;50.942;3.644;2023-06-26T11:54:36;5.20;;;1.38;;
52948;SDS011;38812;50.942;3.644;2023-06-26T11:57:02;4.95;;;1.25;;
52948;SDS011;38812;50.942;3.644;2023-06-26T11:59:34;7.85;;;1.95;;
52948;SDS011;38812;50.942;3.644;2023-06-26T12:02:05;5.60;;;1.55;;
52948;SDS011;38812;50.942;3.644;2023-06-26T12:04:35;3.80;;;1.23;;
52948;SDS011;38812;50.942;3.644;2023-06-26T12:07:04;4.72;;;1.30;;
52948;SDS011;38812;50.942;3.644;2023-06-26T12:09:32;5.45;;;1.30;;
52948;SDS011;38812;50.942;3.644;2023-06-26T12:12:00;2.78;;;1.10;;
52948;SDS011;38812;50.942;3.644;2023-06-26T12:14:26;3.47;;;1.20;;
52948;SDS011;38812;50.942;3.644;2023-06-26T12:16:53;11.30;;;1.50;;
52948;SDS011;38812;50.942;3.644;2023-06-26T12:19:24;7.03;;;1.55;;
52948;SDS011;38812;50.942;3.644;2023-06-26T12:21:53;2.83;;;1.48;;
52948;SDS011;38812;50.942;3.644;2023-06-26T12:24:21;2.28;;;1.15;;
52948;SDS011;38812;50.942;3.644;2023-06-26T12:26:52;5.68;;;1.45;;
52948;SDS011;38812;50.942;3.644;2023-06-26T12:29:21;5.93;;;2.35;;
52948;SDS011;38812;50.942;3.644;2023-06-26T12:31:53;3.38;;;1.98;;
52948;SDS011;38812;50.942;3.644;2023-06-26T12:34:19;2.28;;;1.10;;
52948;SDS011;38812;50.942;3.644;2023-06-26T12:36:49;5.25;;;1.40;;
52948;SDS011;38812;50.942;3.644;2023-06-26T12:39:17;6.57;;;1.58;;
52948;SDS011;38812;50.942;3.644;2023-06-26T12:42:05;6.53;;;1.70;;
52948;SDS011;38812;50.942;3.644;2023-06-26T12:44:30;2.85;;;1.50;;
52948;SDS011;38812;50.942;3.644;2023-06-26T12:47:02;7.85;;;1.95;;
52948;SDS011;38812;50.942;3.644;2023-06-26T12:49:34;7.75;;;1.50;;
52948;SDS011;38812;50.942;3.644;2023-06-26T12:52:02;3.17;;;1.20;;
52948;SDS011;38812;50.942;3.644;2023-06-26T12:54:30;6.82;;;1.45;;
52948;SDS011;38812;50.942;3.644;2023-06-26T12:56:57;3.22;;;1.52;;
52948;SDS011;38812;50.942;3.644;2023-06-26T12:59:22;7.82;;;1.13;;
52948;SDS011;38812;50.942;3.644;2023-06-26T13:01:48;4.40;;;0.98;;
52948;SDS011;38812;50.942;3.644;2023-06-26T13:04:14;4.25;;;1.42;;
52948;SDS011;38812;50.942;3.644;2023-06-26T13:06:40;7.18;;;1.30;;
52948;SDS011;38812;50.942;3.644;2023-06-26T13:09:05;8.82;;;1.80;;
52948;SDS011;38812;50.942;3.644;2023-06-26T13:11:31;4.43;;;1.50;;
52948;SDS011;38812;50.942;3.644;2023-06-26T13:13:58;5.85;;;1.70;;
52948;SDS011;38812;50.942;3.644;2023-06-26T13:16:24;8.65;;;1.58;;
52948;SDS011;38812;50.942;3.644;2023-06-26T13:18:50;2.85;;;1.20;;
52948;SDS011;38812;50.942;3.644;2023-06-26T13:21:15;2.40;;;1.38;;
52948;SDS011;38812;50.942;3.644;2023-06-26T13:23:42;8.88;;;2.00;;
52948;SDS011;38812;50.942;3.644;2023-06-26T13:26:08;8.43;;;1.40;;
52948;SDS011;38812;50.942;3.644;2023-06-26T13:28:34;5.00;;;1.63;;
52948;SDS011;38812;50.942;3.644;2023-06-26T13:31:01;6.30;;;1.23;;
52948;SDS011;38812;50.942;3.644;2023-06-26T13:33:27;7.18;;;1.52;;
52948;SDS011;38812;50.942;3.644;2023-06-26T13:35:52;5.15;;;1.48;;
52948;SDS011;38812;50.942;3.644;2023-06-26T13:38:21;8.07;;;1.50;;
52948;SDS011;38812;50.942;3.644;2023-06-26T13:43:16;6.78;;;1.17;;
52948;SDS011;38812;50.942;3.644;2023-06-26T13:45:42;4.03;;;1.35;;
52948;SDS011;38812;50.942;3.644;2023-06-26T13:48:07;7.70;;;1.10;;
52948;SDS011;38812;50.942;3.644;2023-06-26T13:50:33;9.43;;;1.10;;
52948;SDS011;38812;50.942;3.644;2023-06-26T13:52:58;2.50;;;1.45;;
52948;SDS011;38812;50.942;3.644;2023-06-26T13:55:23;3.85;;;1.30;;
52948;SDS011;38812;50.942;3.644;2023-06-26T13:57:49;5.78;;;1.63;;
52948;SDS011;38812;50.942;3.644;2023-06-26T14:00:14;3.22;;;1.38;;
52948;SDS011;38812;50.942;3.644;2023-06-26T14:02:44;2.65;;;1.38;;
52948;SDS011;38812;50.942;3.644;2023-06-26T14:05:10;6.88;;;1.45;;
52948;SDS011;38812;50.942;3.644;2023-06-26T14:07:36;4.07;;;1.35;;
52948;SDS011;38812;50.942;3.644;2023-06-26T14:10:02;13.60;;;1.73;;
52948;SDS011;38812;50.942;3.644;2023-06-26T14:12:28;2.45;;;1.25;;
52948;SDS011;38812;50.942;3.644;2023-06-26T14:14:54;6.88;;;1.00;;
52948;SDS011;38812;50.942;3.644;2023-06-26T14:17:19;9.18;;;1.25;;
52948;SDS011;38812;50.942;3.644;2023-06-26T14:19:44;2.63;;;0.98;;
52948;SDS011;38812;50.942;3.644;2023-06-26T14:22:11;2.40;;;1.30;;
52948;SDS011;38812;50.942;3.644;2023-06-26T14:24:36;3.72;;;1.05;;
52948;SDS011;38812;50.942;3.644;2023-06-26T14:27:02;4.22;;;0.90;;
52948;SDS011;38812;50.942;3.644;2023-06-26T14:29:28;1.58;;;1.10;;
52948;SDS011;38812;50.942;3.644;2023-06-26T14:31:54;5.38;;;1.00;;
52948;SDS011;38812;50.942;3.644;2023-06-26T14:34:20;7.35;;;1.58;;
52948;SDS011;38812;50.942;3.644;2023-06-26T14:36:45;0.85;;;0.70;;
52948;SDS011;38812;50.942;3.644;2023-06-26T14:39:10;3.00;;;1.10;;
52948;SDS011;38812;50.942;3.644;2023-06-26T14:41:36;3.22;;;1.00;;
52948;SDS011;38812;50.942;3.644;2023-06-26T14:44:01;2.85;;;1.17;;
52948;SDS011;38812;50.942;3.644;2023-06-26T14:46:27;1.80;;;1.00;;
52948;SDS011;38812;50.942;3.644;2023-06-26T14:48:52;7.35;;;1.15;;
52948;SDS011;38812;50.942;3.644;2023-06-26T14:51:20;3.03;;;0.80;;
52948;SDS011;38812;50.942;3.644;2023-06-26T14:53:45;5.47;;;1.05;;
52948;SDS011;38812;50.942;3.644;2023-06-26T14:56:12;4.30;;;1.25;;
52948;SDS011;38812;50.942;3.644;2023-06-26T14:58:38;6.18;;;1.10;;
52948;SDS011;38812;50.942;3.644;2023-06-26T15:01:03;2.85;;;1.23;;
52948;SDS011;38812;50.942;3.644;2023-06-26T15:03:28;2.15;;;0.85;;